sensor_id;sensor_type;location;lat;lon;timestamp;P1;durP1;ratioP1;P2;durP2;ratioP2
7605;SDS011;3844;53.360;9.738;2022-10-16T00:00:16;12.55;;;6.50;;
7605;SDS011;3844;53.360;9.738;2022-10-16T00:02:17;10.75;;;5.57;;
7605;SDS011;3844;53.360;9.738;2022-10-16T00:04:17;12.30;;;6.20;;
7605;SDS011;3844;53.360;9.738;2022-10-16T00:06:19;12.55;;;5.70;;
7605;SDS011;3844;53.360;9.738;2022-10-16T00:08:21;12.13;;;5.22;;
7605;SDS011;3844;53.360;9.738;2022-10-16T00:10:21;10.57;;;5.22;;
7605;SDS011;3844;53.360;9.738;2022-10-16T00:12:22;11.80;;;5.57;;
7605;SDS011;3844;53.360;9.738;2022-10-16T00:14:23;12.10;;;5.15;;
7605;SDS011;3844;53.360;9.738;2022-10-16T00:16:23;10.50;;;4.85;;
7605;SDS011;3844;53.360;9.738;2022-10-16T00:18:25;11.13;;;4.70;;
7605;SDS011;3844;53.360;9.738;2022-10-16T00:20:27;10.88;;;4.20;;
7605;SDS011;3844;53.360;9.738;2022-10-16T00:22:28;12.50;;;4.63;;
7605;SDS011;3844;53.360;9.738;2022-10-16T00:24:29;10.80;;;4.55;;
7605;SDS011;3844;53.360;9.738;2022-10-16T00:26:30;13.38;;;4.68;;
7605;SDS011;3844;53.360;9.738;2022-10-16T00:28:32;11.13;;;4.75;;
7605;SDS011;3844;53.360;9.738;2022-10-16T00:30:33;9.65;;;4.40;;
7605;SDS011;3844;53.360;9.738;2022-10-16T00:32:34;11.73;;;4.70;;
7605;SDS011;3844;53.360;9.738;2022-10-16T00:34:35;9.43;;;4.70;;
7605;SDS011;3844;53.360;9.738;2022-10-16T00:36:35;9.75;;;4.70;;
7605;SDS011;3844;53.360;9.738;2022-10-16T00:38:36;10.48;;;4.70;;
7605;SDS011;3844;53.360;9.738;2022-10-16T00:40:40;10.15;;;4.15;;
7605;SDS011;3844;53.360;9.738;2022-10-16T00:42:41;11.90;;;4.05;;
7605;SDS011;3844;53.360;9.738;2022-10-16T00:44:51;12.63;;;4.50;;
7605;SDS011;3844;53.360;9.738;2022-10-16T00:46:57;11.65;;;4.78;;
7605;SDS011;3844;53.360;9.738;2022-10-16T00:49:11;10.15;;;4.28;;
7605;SDS011;3844;53.360;9.738;2022-10-16T00:51:15;8.85;;;4.38;;
7605;SDS011;3844;53.360;9.738;2022-10-16T00:53:23;10.40;;;4.70;;
7605;SDS011;3844;53.360;9.738;2022-10-16T00:55:25;13.25;;;3.88;;
7605;SDS011;3844;53.360;9.738;2022-10-16T00:57:26;11.27;;;4.07;;
7605;SDS011;3844;53.360;9.738;2022-10-16T00:59:28;8.25;;;3.75;;
7605;SDS011;3844;53.360;9.738;2022-10-16T01:01:30;8.05;;;3.95;;
7605;SDS011;3844;53.360;9.738;2022-10-16T01:03:32;9.90;;;3.30;;
7605;SDS011;3844;53.360;9.738;2022-10-16T01:06:18;9.55;;;3.60;;
7605;SDS011;3844;53.360;9.738;2022-10-16T01:08:18;11.02;;;3.38;;
7605;SDS011;3844;53.360;9.738;2022-10-16T01:12:54;8.30;;;3.03;;
7605;SDS011;3844;53.360;9.738;2022-10-16T01:15:22;6.93;;;2.80;;
7605;SDS011;3844;53.360;9.738;2022-10-16T01:20:00;7.70;;;2.90;;
7605;SDS011;3844;53.360;9.738;2022-10-16T01:22:20;6.53;;;2.90;;
7605;SDS011;3844;53.360;9.738;2022-10-16T01:28:58;6.35;;;2.50;;
7605;SDS011;3844;53.360;9.738;2022-10-16T01:31:05;6.93;;;2.67;;
7605;SDS011;3844;53.360;9.738;2022-10-16T01:33:08;5.25;;;2.20;;
7605;SDS011;3844;53.360;9.738;2022-10-16T01:37:36;6.18;;;2.10;;
7605;SDS011;3844;53.360;9.738;2022-10-16T01:39:41;7.28;;;2.10;;
7605;SDS011;3844;53.360;9.738;2022-10-16T01:41:48;6.82;;;2.22;;
7605;SDS011;3844;53.360;9.738;2022-10-16T01:43:57;5.93;;;2.10;;
7605;SDS011;3844;53.360;9.738;2022-10-16T01:46:00;6.20;;;2.10;;
7605;SDS011;3844;53.360;9.738;2022-10-16T01:48:02;7.15;;;2.30;;
7605;SDS011;3844;53.360;9.738;2022-10-16T01:50:08;7.18;;;2.50;;
7605;SDS011;3844;53.360;9.738;2022-10-16T01:52:10;8.15;;;2.20;;
7605;SDS011;3844;53.360;9.738;2022-10-16T01:54:15;6.82;;;2.13;;
7605;SDS011;3844;53.360;9.738;2022-10-16T01:56:19;9.93;;;2.50;;
7605;SDS011;3844;53.360;9.738;2022-10-16T01:58:22;9.43;;;2.20;;
7605;SDS011;3844;53.360;9.738;2022-10-16T02:00:25;8.15;;;2.47;;
7605;SDS011;3844;53.360;9.738;2022-10-16T02:02:28;8.52;;;2.38;;
7605;SDS011;3844;53.360;9.738;2022-10-16T02:06:33;8.07;;;2.10;;
7605;SDS011;3844;53.360;9.738;2022-10-16T02:08:34;9.18;;;2.28;;
7605;SDS011;3844;53.360;9.738;2022-10-16T02:10:36;5.85;;;2.13;;
7605;SDS011;3844;53.360;9.738;2022-10-16T02:12:38;5.95;;;1.90;;
7605;SDS011;3844;53.360;9.738;2022-10-16T02:14:44;6.57;;;2.05;;
7605;SDS011;3844;53.360;9.738;2022-10-16T02:16:45;7.22;;;2.00;;
7605;SDS011;3844;53.360;9.738;2022-10-16T02:18:46;6.72;;;2.03;;
7605;SDS011;3844;53.360;9.738;2022-10-16T02:22:50;7.32;;;1.90;;
7605;SDS011;3844;53.360;9.738;2022-10-16T02:24:59;5.57;;;1.88;;
7605;SDS011;3844;53.360;9.738;2022-10-16T02:29:10;4.60;;;1.48;;
7605;SDS011;3844;53.360;9.738;2022-10-16T02:31:13;4.65;;;1.70;;
7605;SDS011;3844;53.360;9.738;2022-10-16T02:33:19;6.50;;;2.03;;
7605;SDS011;3844;53.360;9.738;2022-10-16T02:35:21;6.40;;;1.90;;
7605;SDS011;3844;53.360;9.738;2022-10-16T02:37:24;7.27;;;2.13;;
7605;SDS011;3844;53.360;9.738;2022-10-16T02:39:26;5.55;;;1.90;;
7605;SDS011;3844;53.360;9.738;2022-10-16T02:41:28;5.75;;;1.73;;
7605;SDS011;3844;53.360;9.738;2022-10-16T02:43:29;7.00;;;1.98;;
7605;SDS011;3844;53.360;9.738;2022-10-16T02:45:30;6.90;;;2.08;;
7605;SDS011;3844;53.360;9.738;2022-10-16T02:47:31;4.82;;;1.95;;
7605;SDS011;3844;53.360;9.738;2022-10-16T02:49:32;6.38;;;1.95;;
7605;SDS011;3844;53.360;9.738;2022-10-16T02:51:33;5.40;;;1.80;;
7605;SDS011;3844;53.360;9.738;2022-10-16T02:53:34;6.10;;;2.00;;
7605;SDS011;3844;53.360;9.738;2022-10-16T02:55:34;9.30;;;2.45;;
7605;SDS011;3844;53.360;9.738;2022-10-16T02:57:35;8.63;;;2.20;;
7605;SDS011;3844;53.360;9.738;2022-10-16T02:59:37;5.10;;;2.13;;
7605;SDS011;3844;53.360;9.738;2022-10-16T03:01:37;4.53;;;1.90;;
7605;SDS011;3844;53.360;9.738;2022-10-16T03:03:38;5.40;;;1.80;;
7605;SDS011;3844;53.360;9.738;2022-10-16T03:05:39;7.47;;;1.98;;
7605;SDS011;3844;53.360;9.738;2022-10-16T03:07:40;7.72;;;2.30;;
7605;SDS011;3844;53.360;9.738;2022-10-16T03:09:41;7.50;;;2.30;;
7605;SDS011;3844;53.360;9.738;2022-10-16T03:11:41;9.80;;;2.30;;
7605;SDS011;3844;53.360;9.738;2022-10-16T03:13:42;8.77;;;2.17;;
7605;SDS011;3844;53.360;9.738;2022-10-16T03:15:43;8.55;;;2.30;;
7605;SDS011;3844;53.360;9.738;2022-10-16T03:17:44;5.75;;;2.00;;
7605;SDS011;3844;53.360;9.738;2022-10-16T03:19:44;5.97;;;2.33;;
7605;SDS011;3844;53.360;9.738;2022-10-16T03:21:45;7.22;;;2.35;;
7605;SDS011;3844;53.360;9.738;2022-10-16T03:23:46;7.00;;;2.10;;
7605;SDS011;3844;53.360;9.738;2022-10-16T03:25:47;6.07;;;2.10;;
7605;SDS011;3844;53.360;9.738;2022-10-16T03:27:48;7.35;;;2.22;;
7605;SDS011;3844;53.360;9.738;2022-10-16T03:29:48;6.85;;;2.30;;
7605;SDS011;3844;53.360;9.738;2022-10-16T03:31:49;7.07;;;2.42;;
7605;SDS011;3844;53.360;9.738;2022-10-16T03:33:50;8.55;;;2.40;;
7605;SDS011;3844;53.360;9.738;2022-10-16T03:35:51;9.02;;;2.28;;
7605;SDS011;3844;53.360;9.738;2022-10-16T03:37:53;5.00;;;2.05;;
7605;SDS011;3844;53.360;9.738;2022-10-16T03:39:53;5.35;;;1.85;;
7605;SDS011;3844;53.360;9.738;2022-10-16T03:41:54;5.10;;;2.03;;
7605;SDS011;3844;53.360;9.738;2022-10-16T03:43:55;5.90;;;2.28;;
7605;SDS011;3844;53.360;9.738;2022-10-16T03:45:56;7.68;;;2.30;;
7605;SDS011;3844;53.360;9.738;2022-10-16T03:47:57;6.07;;;2.28;;
7605;SDS011;3844;53.360;9.738;2022-10-16T03:49:58;8.02;;;2.53;;
7605;SDS011;3844;53.360;9.738;2022-10-16T03:51:59;6.28;;;2.03;;
7605;SDS011;3844;53.360;9.738;2022-10-16T03:54:00;5.88;;;2.10;;
7605;SDS011;3844;53.360;9.738;2022-10-16T03:56:01;6.63;;;2.20;;
7605;SDS011;3844;53.360;9.738;2022-10-16T03:58:02;7.03;;;2.30;;
7605;SDS011;3844;53.360;9.738;2022-10-16T04:00:03;5.63;;;2.17;;
7605;SDS011;3844;53.360;9.738;2022-10-16T04:02:04;5.20;;;1.88;;
7605;SDS011;3844;53.360;9.738;2022-10-16T04:04:05;9.13;;;2.20;;
7605;SDS011;3844;53.360;9.738;2022-10-16T04:06:05;7.07;;;2.10;;
7605;SDS011;3844;53.360;9.738;2022-10-16T04:08:06;7.38;;;2.20;;
7605;SDS011;3844;53.360;9.738;2022-10-16T04:10:07;5.20;;;2.20;;
7605;SDS011;3844;53.360;9.738;2022-10-16T04:12:08;4.78;;;1.73;;
7605;SDS011;3844;53.360;9.738;2022-10-16T04:14:09;7.22;;;2.60;;
7605;SDS011;3844;53.360;9.738;2022-10-16T04:16:10;8.02;;;2.22;;
7605;SDS011;3844;53.360;9.738;2022-10-16T04:18:11;7.32;;;2.28;;
7605;SDS011;3844;53.360;9.738;2022-10-16T04:20:12;7.60;;;2.13;;
7605;SDS011;3844;53.360;9.738;2022-10-16T04:22:12;8.32;;;2.65;;
7605;SDS011;3844;53.360;9.738;2022-10-16T04:24:13;7.90;;;2.58;;
7605;SDS011;3844;53.360;9.738;2022-10-16T04:26:14;7.57;;;2.75;;
7605;SDS011;3844;53.360;9.738;2022-10-16T04:28:15;5.88;;;2.30;;
7605;SDS011;3844;53.360;9.738;2022-10-16T04:30:15;6.75;;;2.70;;
7605;SDS011;3844;53.360;9.738;2022-10-16T04:32:16;8.25;;;2.58;;
7605;SDS011;3844;53.360;9.738;2022-10-16T04:34:17;9.73;;;3.15;;
7605;SDS011;3844;53.360;9.738;2022-10-16T04:36:18;7.97;;;3.20;;
7605;SDS011;3844;53.360;9.738;2022-10-16T04:38:19;8.07;;;2.90;;
7605;SDS011;3844;53.360;9.738;2022-10-16T04:40:19;10.40;;;3.30;;
7605;SDS011;3844;53.360;9.738;2022-10-16T04:42:20;8.73;;;3.30;;
7605;SDS011;3844;53.360;9.738;2022-10-16T04:44:21;10.73;;;3.40;;
7605;SDS011;3844;53.360;9.738;2022-10-16T04:46:22;10.93;;;3.95;;
7605;SDS011;3844;53.360;9.738;2022-10-16T04:48:23;9.90;;;3.90;;
7605;SDS011;3844;53.360;9.738;2022-10-16T04:50:23;9.75;;;3.60;;
7605;SDS011;3844;53.360;9.738;2022-10-16T04:52:24;11.27;;;3.83;;
7605;SDS011;3844;53.360;9.738;2022-10-16T04:54:26;9.65;;;3.45;;
7605;SDS011;3844;53.360;9.738;2022-10-16T04:56:27;8.02;;;3.35;;
7605;SDS011;3844;53.360;9.738;2022-10-16T04:58:27;8.35;;;3.55;;
7605;SDS011;3844;53.360;9.738;2022-10-16T05:00:28;10.95;;;3.80;;
7605;SDS011;3844;53.360;9.738;2022-10-16T05:02:29;10.43;;;3.75;;
7605;SDS011;3844;53.360;9.738;2022-10-16T05:04:30;12.00;;;4.20;;
7605;SDS011;3844;53.360;9.738;2022-10-16T05:06:31;11.43;;;4.13;;
7605;SDS011;3844;53.360;9.738;2022-10-16T05:08:32;11.35;;;4.30;;
7605;SDS011;3844;53.360;9.738;2022-10-16T05:10:33;12.48;;;4.13;;
7605;SDS011;3844;53.360;9.738;2022-10-16T05:12:33;10.75;;;3.90;;
7605;SDS011;3844;53.360;9.738;2022-10-16T05:14:34;11.95;;;3.88;;
7605;SDS011;3844;53.360;9.738;2022-10-16T05:16:35;9.02;;;4.00;;
7605;SDS011;3844;53.360;9.738;2022-10-16T05:18:36;11.63;;;3.75;;
7605;SDS011;3844;53.360;9.738;2022-10-16T05:20:37;8.80;;;3.50;;
7605;SDS011;3844;53.360;9.738;2022-10-16T05:22:38;10.13;;;3.75;;
7605;SDS011;3844;53.360;9.738;2022-10-16T05:24:38;8.88;;;3.40;;
7605;SDS011;3844;53.360;9.738;2022-10-16T05:26:39;11.43;;;3.35;;
7605;SDS011;3844;53.360;9.738;2022-10-16T05:28:40;8.82;;;3.60;;
7605;SDS011;3844;53.360;9.738;2022-10-16T05:30:41;9.25;;;3.58;;
7605;SDS011;3844;53.360;9.738;2022-10-16T05:32:45;9.10;;;4.30;;
7605;SDS011;3844;53.360;9.738;2022-10-16T05:34:47;8.23;;;3.70;;
7605;SDS011;3844;53.360;9.738;2022-10-16T05:36:48;13.38;;;4.25;;
7605;SDS011;3844;53.360;9.738;2022-10-16T05:38:50;9.43;;;3.15;;
7605;SDS011;3844;53.360;9.738;2022-10-16T05:40:51;10.85;;;3.65;;
7605;SDS011;3844;53.360;9.738;2022-10-16T05:42:54;10.05;;;3.58;;
7605;SDS011;3844;53.360;9.738;2022-10-16T05:44:55;12.45;;;4.35;;
7605;SDS011;3844;53.360;9.738;2022-10-16T05:46:56;12.32;;;3.90;;
7605;SDS011;3844;53.360;9.738;2022-10-16T05:48:57;11.70;;;3.53;;
7605;SDS011;3844;53.360;9.738;2022-10-16T05:50:58;15.73;;;4.40;;
7605;SDS011;3844;53.360;9.738;2022-10-16T05:53:00;13.40;;;4.20;;
7605;SDS011;3844;53.360;9.738;2022-10-16T05:55:01;18.85;;;4.85;;
7605;SDS011;3844;53.360;9.738;2022-10-16T05:57:02;18.90;;;5.22;;
7605;SDS011;3844;53.360;9.738;2022-10-16T05:59:03;15.13;;;4.88;;
7605;SDS011;3844;53.360;9.738;2022-10-16T06:01:06;11.18;;;4.55;;
7605;SDS011;3844;53.360;9.738;2022-10-16T06:03:17;13.63;;;4.03;;
7605;SDS011;3844;53.360;9.738;2022-10-16T06:05:17;14.75;;;4.97;;
7605;SDS011;3844;53.360;9.738;2022-10-16T06:07:19;12.50;;;4.65;;
7605;SDS011;3844;53.360;9.738;2022-10-16T06:09:19;14.07;;;4.78;;
7605;SDS011;3844;53.360;9.738;2022-10-16T06:11:24;13.18;;;4.95;;
7605;SDS011;3844;53.360;9.738;2022-10-16T06:13:26;10.32;;;4.38;;
7605;SDS011;3844;53.360;9.738;2022-10-16T06:15:26;13.25;;;4.60;;
7605;SDS011;3844;53.360;9.738;2022-10-16T06:17:27;12.63;;;5.10;;
7605;SDS011;3844;53.360;9.738;2022-10-16T06:19:28;14.27;;;5.43;;
7605;SDS011;3844;53.360;9.738;2022-10-16T06:21:29;12.05;;;5.15;;
7605;SDS011;3844;53.360;9.738;2022-10-16T06:23:30;9.65;;;4.82;;
7605;SDS011;3844;53.360;9.738;2022-10-16T06:25:31;13.30;;;6.03;;
7605;SDS011;3844;53.360;9.738;2022-10-16T06:27:32;12.32;;;5.00;;
7605;SDS011;3844;53.360;9.738;2022-10-16T06:29:33;13.35;;;6.50;;
7605;SDS011;3844;53.360;9.738;2022-10-16T06:31:33;11.45;;;6.25;;
7605;SDS011;3844;53.360;9.738;2022-10-16T06:33:35;14.68;;;6.00;;
7605;SDS011;3844;53.360;9.738;2022-10-16T06:35:36;14.25;;;6.32;;
7605;SDS011;3844;53.360;9.738;2022-10-16T06:37:37;17.15;;;6.00;;
7605;SDS011;3844;53.360;9.738;2022-10-16T06:39:38;14.82;;;6.25;;
7605;SDS011;3844;53.360;9.738;2022-10-16T06:41:39;15.38;;;6.72;;
7605;SDS011;3844;53.360;9.738;2022-10-16T06:43:39;16.33;;;6.93;;
7605;SDS011;3844;53.360;9.738;2022-10-16T06:45:40;15.68;;;7.25;;
7605;SDS011;3844;53.360;9.738;2022-10-16T06:47:41;13.95;;;6.53;;
7605;SDS011;3844;53.360;9.738;2022-10-16T06:49:42;14.02;;;6.47;;
7605;SDS011;3844;53.360;9.738;2022-10-16T06:51:43;14.30;;;6.22;;
7605;SDS011;3844;53.360;9.738;2022-10-16T06:53:45;16.08;;;6.13;;
7605;SDS011;3844;53.360;9.738;2022-10-16T06:55:51;14.27;;;6.90;;
7605;SDS011;3844;53.360;9.738;2022-10-16T06:57:56;16.30;;;7.07;;
7605;SDS011;3844;53.360;9.738;2022-10-16T06:59:57;14.63;;;6.38;;
7605;SDS011;3844;53.360;9.738;2022-10-16T07:02:01;16.08;;;6.57;;
7605;SDS011;3844;53.360;9.738;2022-10-16T07:04:02;13.82;;;5.65;;
7605;SDS011;3844;53.360;9.738;2022-10-16T07:06:03;13.07;;;6.10;;
7605;SDS011;3844;53.360;9.738;2022-10-16T07:08:04;20.30;;;7.38;;
7605;SDS011;3844;53.360;9.738;2022-10-16T07:10:05;14.50;;;6.03;;
7605;SDS011;3844;53.360;9.738;2022-10-16T07:12:06;14.10;;;6.43;;
7605;SDS011;3844;53.360;9.738;2022-10-16T07:14:16;11.85;;;5.38;;
7605;SDS011;3844;53.360;9.738;2022-10-16T07:16:19;14.05;;;5.35;;
7605;SDS011;3844;53.360;9.738;2022-10-16T07:18:22;12.10;;;5.68;;
7605;SDS011;3844;53.360;9.738;2022-10-16T07:20:26;12.15;;;4.78;;
7605;SDS011;3844;53.360;9.738;2022-10-16T07:22:27;10.40;;;4.60;;
7605;SDS011;3844;53.360;9.738;2022-10-16T07:24:28;10.95;;;4.43;;
7605;SDS011;3844;53.360;9.738;2022-10-16T07:26:30;10.50;;;4.32;;
7605;SDS011;3844;53.360;9.738;2022-10-16T07:28:32;13.07;;;5.20;;
7605;SDS011;3844;53.360;9.738;2022-10-16T07:30:34;12.15;;;4.88;;
7605;SDS011;3844;53.360;9.738;2022-10-16T07:32:37;13.43;;;4.97;;
7605;SDS011;3844;53.360;9.738;2022-10-16T07:34:37;12.75;;;5.00;;
7605;SDS011;3844;53.360;9.738;2022-10-16T07:36:38;10.80;;;4.90;;
7605;SDS011;3844;53.360;9.738;2022-10-16T07:38:39;9.63;;;4.38;;
7605;SDS011;3844;53.360;9.738;2022-10-16T07:40:39;9.88;;;3.80;;
7605;SDS011;3844;53.360;9.738;2022-10-16T07:42:40;9.05;;;3.60;;
7605;SDS011;3844;53.360;9.738;2022-10-16T07:44:41;9.95;;;4.20;;
7605;SDS011;3844;53.360;9.738;2022-10-16T07:46:41;11.57;;;4.10;;
7605;SDS011;3844;53.360;9.738;2022-10-16T07:48:42;9.55;;;4.18;;
7605;SDS011;3844;53.360;9.738;2022-10-16T07:50:47;9.05;;;3.78;;
7605;SDS011;3844;53.360;9.738;2022-10-16T07:52:49;9.15;;;4.18;;
7605;SDS011;3844;53.360;9.738;2022-10-16T07:54:49;9.48;;;3.67;;
7605;SDS011;3844;53.360;9.738;2022-10-16T07:56:50;9.20;;;4.07;;
7605;SDS011;3844;53.360;9.738;2022-10-16T07:58:51;6.57;;;3.33;;
7605;SDS011;3844;53.360;9.738;2022-10-16T08:00:52;9.30;;;3.20;;
7605;SDS011;3844;53.360;9.738;2022-10-16T08:02:52;8.98;;;3.30;;
7605;SDS011;3844;53.360;9.738;2022-10-16T08:04:53;7.25;;;3.45;;
7605;SDS011;3844;53.360;9.738;2022-10-16T08:06:54;9.30;;;3.58;;
7605;SDS011;3844;53.360;9.738;2022-10-16T08:08:55;8.48;;;3.28;;
7605;SDS011;3844;53.360;9.738;2022-10-16T08:10:56;8.63;;;3.13;;
7605;SDS011;3844;53.360;9.738;2022-10-16T08:12:56;8.85;;;3.05;;
7605;SDS011;3844;53.360;9.738;2022-10-16T08:14:57;8.35;;;3.10;;
7605;SDS011;3844;53.360;9.738;2022-10-16T08:16:58;8.32;;;2.95;;
7605;SDS011;3844;53.360;9.738;2022-10-16T08:18:58;5.07;;;2.55;;
7605;SDS011;3844;53.360;9.738;2022-10-16T08:20:59;9.07;;;3.05;;
7605;SDS011;3844;53.360;9.738;2022-10-16T08:23:00;6.57;;;2.50;;
7605;SDS011;3844;53.360;9.738;2022-10-16T08:25:01;6.22;;;2.60;;
7605;SDS011;3844;53.360;9.738;2022-10-16T08:27:02;8.13;;;2.80;;
7605;SDS011;3844;53.360;9.738;2022-10-16T08:29:03;7.50;;;3.13;;
7605;SDS011;3844;53.360;9.738;2022-10-16T08:31:13;6.53;;;2.70;;
7605;SDS011;3844;53.360;9.738;2022-10-16T08:33:15;6.85;;;2.60;;
7605;SDS011;3844;53.360;9.738;2022-10-16T08:35:16;4.85;;;2.20;;
7605;SDS011;3844;53.360;9.738;2022-10-16T08:37:17;6.05;;;2.20;;
7605;SDS011;3844;53.360;9.738;2022-10-16T08:39:17;5.20;;;2.20;;
7605;SDS011;3844;53.360;9.738;2022-10-16T08:41:47;5.45;;;2.00;;
7605;SDS011;3844;53.360;9.738;2022-10-16T08:44:00;7.32;;;2.05;;
7605;SDS011;3844;53.360;9.738;2022-10-16T08:48:54;4.72;;;2.00;;
7605;SDS011;3844;53.360;9.738;2022-10-16T08:51:00;4.68;;;1.83;;
7605;SDS011;3844;53.360;9.738;2022-10-16T08:53:03;4.20;;;1.77;;
7605;SDS011;3844;53.360;9.738;2022-10-16T08:55:06;6.28;;;1.63;;
7605;SDS011;3844;53.360;9.738;2022-10-16T08:57:20;5.53;;;1.77;;
7605;SDS011;3844;53.360;9.738;2022-10-16T08:59:22;5.13;;;1.58;;
7605;SDS011;3844;53.360;9.738;2022-10-16T09:01:24;4.88;;;1.50;;
7605;SDS011;3844;53.360;9.738;2022-10-16T09:07:58;3.90;;;1.50;;
7605;SDS011;3844;53.360;9.738;2022-10-16T09:10:11;10.25;;;1.70;;
7605;SDS011;3844;53.360;9.738;2022-10-16T09:12:21;4.68;;;1.35;;
7605;SDS011;3844;53.360;9.738;2022-10-16T09:16:54;6.43;;;1.60;;
7605;SDS011;3844;53.360;9.738;2022-10-16T09:21:23;6.15;;;1.30;;
7605;SDS011;3844;53.360;9.738;2022-10-16T09:23:27;8.55;;;1.42;;
7605;SDS011;3844;53.360;9.738;2022-10-16T09:25:30;4.75;;;1.45;;
7605;SDS011;3844;53.360;9.738;2022-10-16T09:27:32;4.72;;;1.27;;
7605;SDS011;3844;53.360;9.738;2022-10-16T09:29:33;6.13;;;1.35;;
7605;SDS011;3844;53.360;9.738;2022-10-16T09:31:35;5.25;;;1.40;;
7605;SDS011;3844;53.360;9.738;2022-10-16T09:33:37;3.90;;;1.20;;
7605;SDS011;3844;53.360;9.738;2022-10-16T09:35:42;6.28;;;1.20;;
7605;SDS011;3844;53.360;9.738;2022-10-16T09:37:49;4.47;;;1.40;;
7605;SDS011;3844;53.360;9.738;2022-10-16T09:41:53;3.53;;;1.10;;
7605;SDS011;3844;53.360;9.738;2022-10-16T09:43:55;7.03;;;1.25;;
7605;SDS011;3844;53.360;9.738;2022-10-16T09:46:00;4.75;;;1.20;;
7605;SDS011;3844;53.360;9.738;2022-10-16T09:50:20;4.97;;;1.20;;
7605;SDS011;3844;53.360;9.738;2022-10-16T09:52:26;5.80;;;1.20;;
7605;SDS011;3844;53.360;9.738;2022-10-16T09:54:27;3.70;;;1.08;;
7605;SDS011;3844;53.360;9.738;2022-10-16T09:56:31;5.53;;;1.27;;
7605;SDS011;3844;53.360;9.738;2022-10-16T09:58:36;7.88;;;1.13;;
7605;SDS011;3844;53.360;9.738;2022-10-16T10:00:37;5.43;;;1.30;;
7605;SDS011;3844;53.360;9.738;2022-10-16T10:02:42;5.55;;;1.10;;
7605;SDS011;3844;53.360;9.738;2022-10-16T10:04:52;5.20;;;1.10;;
7605;SDS011;3844;53.360;9.738;2022-10-16T10:06:55;6.13;;;1.00;;
7605;SDS011;3844;53.360;9.738;2022-10-16T10:08:58;5.78;;;1.05;;
7605;SDS011;3844;53.360;9.738;2022-10-16T10:10:59;3.23;;;0.77;;
7605;SDS011;3844;53.360;9.738;2022-10-16T10:13:00;4.10;;;1.00;;
7605;SDS011;3844;53.360;9.738;2022-10-16T10:15:06;4.05;;;0.90;;
7605;SDS011;3844;53.360;9.738;2022-10-16T10:19:20;4.93;;;0.93;;
7605;SDS011;3844;53.360;9.738;2022-10-16T10:21:22;5.70;;;1.10;;
7605;SDS011;3844;53.360;9.738;2022-10-16T10:23:24;3.88;;;1.00;;
7605;SDS011;3844;53.360;9.738;2022-10-16T10:39:43;5.43;;;1.00;;
7605;SDS011;3844;53.360;9.738;2022-10-16T11:02:41;3.70;;;1.02;;
7605;SDS011;3844;53.360;9.738;2022-10-16T11:09:36;5.07;;;1.10;;
7605;SDS011;3844;53.360;9.738;2022-10-16T11:11:49;4.78;;;0.90;;
7605;SDS011;3844;53.360;9.738;2022-10-16T11:14:05;7.85;;;1.00;;
7605;SDS011;3844;53.360;9.738;2022-10-16T11:16:35;5.00;;;0.95;;
7605;SDS011;3844;53.360;9.738;2022-10-16T11:19:08;5.53;;;0.98;;
7605;SDS011;3844;53.360;9.738;2022-10-16T11:21:19;5.65;;;1.00;;
7605;SDS011;3844;53.360;9.738;2022-10-16T11:25:29;4.85;;;0.88;;
7605;SDS011;3844;53.360;9.738;2022-10-16T11:29:43;4.60;;;0.82;;
7605;SDS011;3844;53.360;9.738;2022-10-16T11:32:06;4.22;;;0.70;;
7605;SDS011;3844;53.360;9.738;2022-10-16T11:34:37;4.47;;;0.80;;
7605;SDS011;3844;53.360;9.738;2022-10-16T11:36:53;4.32;;;0.85;;
7605;SDS011;3844;53.360;9.738;2022-10-16T11:41:01;5.85;;;0.90;;
7605;SDS011;3844;53.360;9.738;2022-10-16T11:43:15;3.38;;;0.77;;
7605;SDS011;3844;53.360;9.738;2022-10-16T11:45:28;5.90;;;0.90;;
7605;SDS011;3844;53.360;9.738;2022-10-16T11:47:46;4.72;;;0.80;;
7605;SDS011;3844;53.360;9.738;2022-10-16T11:49:52;5.97;;;1.00;;
7605;SDS011;3844;53.360;9.738;2022-10-16T11:56:39;4.05;;;0.80;;
7605;SDS011;3844;53.360;9.738;2022-10-16T12:01:01;8.23;;;1.02;;
7605;SDS011;3844;53.360;9.738;2022-10-16T12:03:40;4.72;;;0.82;;
7605;SDS011;3844;53.360;9.738;2022-10-16T12:10:22;5.57;;;1.17;;
7605;SDS011;3844;53.360;9.738;2022-10-16T12:14:38;4.53;;;0.80;;
7605;SDS011;3844;53.360;9.738;2022-10-16T12:19:03;3.97;;;0.50;;
7605;SDS011;3844;53.360;9.738;2022-10-16T12:21:12;5.82;;;1.00;;
7605;SDS011;3844;53.360;9.738;2022-10-16T12:23:19;3.78;;;0.82;;
7605;SDS011;3844;53.360;9.738;2022-10-16T12:25:26;4.43;;;0.70;;
7605;SDS011;3844;53.360;9.738;2022-10-16T12:29:39;5.85;;;0.90;;
7605;SDS011;3844;53.360;9.738;2022-10-16T12:31:45;3.03;;;0.75;;
7605;SDS011;3844;53.360;9.738;2022-10-16T12:33:56;6.30;;;1.10;;
7605;SDS011;3844;53.360;9.738;2022-10-16T12:36:00;8.57;;;1.10;;
7605;SDS011;3844;53.360;9.738;2022-10-16T12:38:05;6.97;;;1.02;;
7605;SDS011;3844;53.360;9.738;2022-10-16T12:40:34;7.43;;;1.02;;
7605;SDS011;3844;53.360;9.738;2022-10-16T12:42:35;5.07;;;0.82;;
7605;SDS011;3844;53.360;9.738;2022-10-16T12:44:36;6.32;;;1.05;;
7605;SDS011;3844;53.360;9.738;2022-10-16T12:46:37;5.18;;;0.90;;
7605;SDS011;3844;53.360;9.738;2022-10-16T12:48:40;5.70;;;0.80;;
7605;SDS011;3844;53.360;9.738;2022-10-16T12:50:44;7.20;;;0.90;;
7605;SDS011;3844;53.360;9.738;2022-10-16T12:52:45;5.10;;;0.82;;
7605;SDS011;3844;53.360;9.738;2022-10-16T12:54:45;3.97;;;1.00;;
7605;SDS011;3844;53.360;9.738;2022-10-16T12:59:13;4.95;;;0.70;;
7605;SDS011;3844;53.360;9.738;2022-10-16T13:10:25;4.80;;;0.88;;
7605;SDS011;3844;53.360;9.738;2022-10-16T13:12:48;3.92;;;0.80;;
7605;SDS011;3844;53.360;9.738;2022-10-16T13:15:04;6.95;;;1.10;;
7605;SDS011;3844;53.360;9.738;2022-10-16T13:22:05;5.13;;;0.80;;
7605;SDS011;3844;53.360;9.738;2022-10-16T13:26:31;6.30;;;1.58;;
7605;SDS011;3844;53.360;9.738;2022-10-16T13:28:39;6.82;;;1.00;;
7605;SDS011;3844;53.360;9.738;2022-10-16T13:30:41;5.43;;;0.95;;
7605;SDS011;3844;53.360;9.738;2022-10-16T13:32:45;8.00;;;0.93;;
7605;SDS011;3844;53.360;9.738;2022-10-16T13:34:48;5.25;;;1.00;;
7605;SDS011;3844;53.360;9.738;2022-10-16T13:36:50;6.07;;;0.82;;
7605;SDS011;3844;53.360;9.738;2022-10-16T13:41:15;4.68;;;1.00;;
7605;SDS011;3844;53.360;9.738;2022-10-16T13:43:18;5.03;;;0.90;;
7605;SDS011;3844;53.360;9.738;2022-10-16T13:45:22;6.18;;;0.93;;
7605;SDS011;3844;53.360;9.738;2022-10-16T13:47:26;7.90;;;1.10;;
7605;SDS011;3844;53.360;9.738;2022-10-16T13:51:29;5.25;;;0.90;;
7605;SDS011;3844;53.360;9.738;2022-10-16T13:53:32;4.68;;;0.90;;
7605;SDS011;3844;53.360;9.738;2022-10-16T13:55:33;7.70;;;1.00;;
7605;SDS011;3844;53.360;9.738;2022-10-16T13:57:34;7.15;;;1.10;;
7605;SDS011;3844;53.360;9.738;2022-10-16T13:59:36;6.38;;;0.93;;
7605;SDS011;3844;53.360;9.738;2022-10-16T14:01:42;5.22;;;1.13;;
7605;SDS011;3844;53.360;9.738;2022-10-16T14:03:44;7.15;;;1.00;;
7605;SDS011;3844;53.360;9.738;2022-10-16T14:05:47;4.32;;;0.77;;
7605;SDS011;3844;53.360;9.738;2022-10-16T14:07:53;4.78;;;0.90;;
7605;SDS011;3844;53.360;9.738;2022-10-16T14:09:55;5.95;;;0.90;;
7605;SDS011;3844;53.360;9.738;2022-10-16T14:12:00;5.70;;;0.90;;
7605;SDS011;3844;53.360;9.738;2022-10-16T14:14:02;6.93;;;0.95;;
7605;SDS011;3844;53.360;9.738;2022-10-16T14:16:07;5.15;;;0.90;;
7605;SDS011;3844;53.360;9.738;2022-10-16T14:18:13;4.85;;;1.00;;
7605;SDS011;3844;53.360;9.738;2022-10-16T14:20:22;4.97;;;0.80;;
7605;SDS011;3844;53.360;9.738;2022-10-16T14:22:28;4.72;;;1.00;;
7605;SDS011;3844;53.360;9.738;2022-10-16T14:24:37;7.25;;;1.10;;
7605;SDS011;3844;53.360;9.738;2022-10-16T14:26:41;5.90;;;0.95;;
7605;SDS011;3844;53.360;9.738;2022-10-16T14:28:43;6.85;;;1.15;;
7605;SDS011;3844;53.360;9.738;2022-10-16T14:32:59;4.68;;;1.17;;
7605;SDS011;3844;53.360;9.738;2022-10-16T14:35:11;7.95;;;1.40;;
7605;SDS011;3844;53.360;9.738;2022-10-16T14:37:24;4.13;;;0.90;;
7605;SDS011;3844;53.360;9.738;2022-10-16T14:39:27;5.95;;;1.00;;
7605;SDS011;3844;53.360;9.738;2022-10-16T14:41:29;5.22;;;1.05;;
7605;SDS011;3844;53.360;9.738;2022-10-16T14:43:36;5.75;;;0.88;;
7605;SDS011;3844;53.360;9.738;2022-10-16T14:45:39;5.70;;;1.10;;
7605;SDS011;3844;53.360;9.738;2022-10-16T14:47:47;6.70;;;1.02;;
7605;SDS011;3844;53.360;9.738;2022-10-16T14:49:52;6.82;;;1.30;;
7605;SDS011;3844;53.360;9.738;2022-10-16T14:51:58;4.47;;;1.05;;